Time;durP1;ratioP1;P1;durP2;ratioP2;P2;SDS_P1;SDS_P2;PMS_P1;PMS_P2;Temp;Humidity;BMP_temperature;BMP_pressure;BME280_temperature;BME280_humidity;BME280_pressure;Samples;Min_cycle;Max_cycle;Signal;HPM_P1;HPM_P2
2021/08/23 00:01:06;;;;;;;20.83;19.67;;;17.20;89.30;;;;;;5038396;28;20554;-74
2021/08/23 00:03:33;;;;;;;20.30;19.10;;;17.20;89.10;;;;;;5045132;28;20471;-74
2021/08/23 00:06:00;;;;;;;21.93;20.50;;;17.20;88.40;;;;;;5046740;28;20944;-74
2021/08/23 00:08:29;;;;;;;20.10;19.00;;;17.20;88.60;;;;;;5040197;28;20495;-74
2021/08/23 00:10:56;;;;;;;21.20;19.90;;;17.30;88.70;;;;;;5044742;28;20463;-74
2021/08/23 00:13:23;;;;;;;21.20;20.00;;;17.30;88.80;;;;;;5047082;28;20888;-74
2021/08/23 00:15:54;;;;;;;22.00;20.60;;;17.20;88.90;;;;;;5041566;28;20463;-74
2021/08/23 00:18:21;;;;;;;21.60;20.17;;;17.20;88.80;;;;;;5037042;28;20993;-74
2021/08/23 00:20:54;;;;;;;21.20;19.80;;;17.30;88.60;;;;;;5044037;28;20462;-74
2021/08/23 00:23:24;;;;;;;21.00;19.90;;;17.30;88.70;;;;;;5046206;28;20445;-74
2021/08/23 00:25:52;;;;;;;21.60;20.23;;;17.10;89.10;;;;;;5045288;28;20512;-74
2021/08/23 00:28:19;;;;;;;21.00;19.80;;;17.10;89.20;;;;;;5043430;28;20485;-74
2021/08/23 00:30:46;;;;;;;21.30;20.10;;;17.10;89.30;;;;;;5040094;28;20453;-74
2021/08/23 00:33:14;;;;;;;22.90;21.37;;;17.10;89.40;;;;;;5043308;28;20579;-74
2021/08/23 00:35:41;;;;;;;22.23;20.83;;;17.00;89.40;;;;;;5040462;28;20468;-74
2021/08/23 00:38:08;;;;;;;21.20;20.00;;;17.00;89.40;;;;;;5044363;28;20487;-74
2021/08/23 00:40:35;;;;;;;21.17;19.83;;;17.10;89.40;;;;;;5046762;28;20975;-74
2021/08/23 00:43:02;;;;;;;21.20;20.00;;;17.10;89.20;;;;;;5042644;28;20546;-74
2021/08/23 00:45:30;;;;;;;21.17;19.97;;;17.00;89.20;;;;;;5041574;28;20492;-74
2021/08/23 00:47:57;;;;;;;21.93;20.43;;;17.10;89.30;;;;;;5040425;28;20574;-74
2021/08/23 00:50:26;;;;;;;21.87;20.60;;;17.10;89.10;;;;;;5043576;28;20458;-74
2021/08/23 00:52:53;;;;;;;22.20;20.90;;;17.10;88.80;;;;;;5045256;28;20471;-74
2021/08/23 00:55:20;;;;;;;21.63;20.43;;;17.10;88.80;;;;;;5038304;28;20460;-74
2021/08/23 00:57:46;;;;;;;22.07;20.77;;;17.10;88.90;;;;;;5037861;28;20485;-74
2021/08/23 01:00:14;;;;;;;22.37;20.97;;;17.10;88.80;;;;;;5040804;28;20472;-74
2021/08/23 01:02:48;;;;;;;21.93;20.73;;;17.10;88.70;;;;;;5039653;28;20613;-74
2021/08/23 01:05:18;;;;;;;21.97;20.60;;;17.20;88.60;;;;;;5037443;28;20897;-74
2021/08/23 01:07:50;;;;;;;21.57;20.30;;;17.10;88.60;;;;;;5037722;28;20987;-74
2021/08/23 01:10:23;;;;;;;22.47;20.87;;;17.10;88.80;;;;;;5040817;28;20462;-74
2021/08/23 01:12:51;;;;;;;21.30;20.10;;;17.10;88.60;;;;;;5033819;28;20992;-74
2021/08/23 01:15:18;;;;;;;21.37;20.17;;;17.10;88.30;;;;;;5039227;28;20465;-74
2021/08/23 01:17:44;;;;;;;21.07;19.97;;;17.10;88.60;;;;;;5038469;28;20485;-74
2021/08/23 01:20:12;;;;;;;21.50;20.30;;;17.10;88.50;;;;;;5040287;28;20472;-74
2021/08/23 01:22:44;;;;;;;22.80;21.20;;;17.10;88.40;;;;;;5040202;28;20455;-74
2021/08/23 01:25:16;;;;;;;21.70;20.60;;;17.10;88.10;;;;;;5043113;28;20466;-73
2021/08/23 01:27:53;;;;;;;21.13;19.93;;;17.10;88.30;;;;;;5045243;28;20476;-73
2021/08/23 01:30:21;;;;;;;21.57;20.33;;;17.10;88.40;;;;;;5042830;28;20864;-73
2021/08/23 01:32:49;;;;;;;21.67;20.20;;;17.00;88.40;;;;;;5038193;28;20493;-73
2021/08/23 01:35:17;;;;;;;20.80;19.60;;;17.10;88.50;;;;;;5041669;28;20468;-73
2021/08/23 01:37:43;;;;;;;21.10;20.00;;;17.00;88.70;;;;;;5042574;28;20473;-73
2021/08/23 01:40:11;;;;;;;21.37;20.07;;;17.10;88.60;;;;;;5042470;28;20905;-73
2021/08/23 01:42:39;;;;;;;20.90;19.70;;;17.10;88.40;;;;;;5042281;28;20786;-73
2021/08/23 01:45:07;;;;;;;21.53;20.33;;;17.10;88.30;;;;;;5039835;28;20486;-74
2021/08/23 01:47:34;;;;;;;21.13;19.80;;;17.10;88.30;;;;;;5044874;28;21032;-73
2021/08/23 01:50:02;;;;;;;21.23;20.00;;;17.10;88.60;;;;;;5039330;28;20930;-73
2021/08/23 01:52:29;;;;;;;21.77;20.27;;;17.10;88.70;;;;;;5042560;28;20465;-73
2021/08/23 01:54:56;;;;;;;21.67;20.27;;;17.10;88.80;;;;;;5039766;28;20540;-73
2021/08/23 01:57:23;;;;;;;20.50;19.40;;;17.10;89.10;;;;;;5042632;28;20484;-73
2021/08/23 01:59:50;;;;;;;22.03;20.77;;;17.20;89.00;;;;;;5045727;28;20461;-73
2021/08/23 02:02:17;;;;;;;22.20;20.70;;;17.10;89.20;;;;;;5039952;28;20958;-73
2021/08/23 02:04:44;;;;;;;21.40;19.80;;;17.00;89.70;;;;;;5044031;28;20912;-73
2021/08/23 02:07:12;;;;;;;20.70;19.40;;;17.10;89.70;;;;;;5041837;28;20949;-73
2021/08/23 02:09:39;;;;;;;21.10;19.70;;;17.10;89.70;;;;;;5038818;28;20482;-73
2021/08/23 02:12:07;;;;;;;21.87;20.60;;;17.10;89.90;;;;;;5041703;28;21210;-73
2021/08/23 02:14:35;;;;;;;21.77;20.30;;;17.00;90.30;;;;;;5042277;28;20482;-73
2021/08/23 02:17:02;;;;;;;20.67;19.37;;;17.00;90.40;;;;;;5043240;28;20454;-74
2021/08/23 02:19:29;;;;;;;20.60;19.50;;;17.10;90.30;;;;;;5045123;28;20458;-73
2021/08/23 02:21:56;;;;;;;21.30;20.00;;;17.00;90.40;;;;;;5042895;28;20550;-73
2021/08/23 02:24:25;;;;;;;22.33;21.13;;;16.90;90.60;;;;;;5043974;28;20996;-73
2021/08/23 02:26:52;;;;;;;21.37;20.00;;;17.00;90.50;;;;;;5041473;28;20464;-73
2021/08/23 02:29:19;;;;;;;20.50;19.40;;;17.00;90.30;;;;;;5038932;28;20485;-73
2021/08/23 02:31:46;;;;;;;20.30;19.20;;;17.00;90.20;;;;;;5043232;28;20979;-73
2021/08/23 02:34:13;;;;;;;22.10;20.20;;;17.00;90.10;;;;;;5043169;28;20480;-73
2021/08/23 02:36:40;;;;;;;21.17;20.00;;;17.00;90.30;;;;;;5042832;28;20467;-73
2021/08/23 02:39:07;;;;;;;22.00;20.70;;;17.00;90.50;;;;;;5038864;28;20554;-73
2021/08/23 02:41:35;;;;;;;21.90;20.70;;;17.00;90.20;;;;;;5043416;28;20465;-73
2021/08/23 02:44:02;;;;;;;20.57;19.27;;;16.90;90.40;;;;;;5041107;28;20468;-73
2021/08/23 02:46:30;;;;;;;20.03;18.73;;;16.90;90.60;;;;;;5035305;28;20481;-73
2021/08/23 02:48:56;;;;;;;21.63;20.27;;;16.90;90.50;;;;;;5037067;28;20603;-73
2021/08/23 02:51:23;;;;;;;21.43;20.00;;;16.90;90.60;;;;;;5043203;28;21083;-73
2021/08/23 02:53:50;;;;;;;21.20;20.03;;;16.90;90.60;;;;;;5042952;28;21067;-73
2021/08/23 02:56:17;;;;;;;20.53;19.33;;;16.90;90.50;;;;;;5041548;28;20948;-73
2021/08/23 02:58:45;;;;;;;20.73;19.43;;;16.90;90.50;;;;;;5042853;28;20477;-73
2021/08/23 03:01:12;;;;;;;21.90;20.70;;;16.80;90.70;;;;;;5042209;28;20469;-73
2021/08/23 03:03:39;;;;;;;20.77;19.63;;;16.90;90.80;;;;;;5039682;28;20473;-73
2021/08/23 03:06:07;;;;;;;21.77;20.10;;;16.90;90.60;;;;;;5042888;28;20459;-73
2021/08/23 03:08:34;;;;;;;20.30;19.20;;;16.80;90.90;;;;;;5041373;28;20848;-73
2021/08/23 03:11:08;;;;;;;22.27;20.77;;;16.80;91.10;;;;;;5045779;28;20470;-73
2021/08/23 03:13:36;;;;;;;21.30;19.87;;;16.70;91.60;;;;;;5046067;28;20474;-74
2021/08/23 03:16:05;;;;;;;21.70;20.30;;;16.70;91.60;;;;;;5040115;28;20995;-73
2021/08/23 03:18:32;;;;;;;22.70;21.37;;;16.70;91.80;;;;;;5045425;28;20825;-73
2021/08/23 03:20:59;;;;;;;20.57;19.47;;;16.70;91.60;;;;;;5048423;28;20469;-74
2021/08/23 03:23:26;;;;;;;21.07;19.57;;;16.70;91.40;;;;;;5045391;28;20583;-74
2021/08/23 03:25:53;;;;;;;21.37;19.70;;;16.70;91.40;;;;;;5041499;28;20562;-74
2021/08/23 03:28:20;;;;;;;20.60;19.50;;;16.70;91.30;;;;;;5044944;28;20868;-74
2021/08/23 03:30:47;;;;;;;21.43;20.00;;;16.70;91.30;;;;;;5038681;28;20536;-74
2021/08/23 03:33:16;;;;;;;24.27;22.60;;;16.80;91.10;;;;;;5042055;28;20482;-73
2021/08/23 03:35:43;;;;;;;20.53;19.43;;;16.80;90.50;;;;;;5046838;28;20466;-73
2021/08/23 03:38:10;;;;;;;24.63;22.93;;;16.80;90.70;;;;;;5045531;28;20475;-73
2021/08/23 03:40:37;;;;;;;22.27;20.97;;;16.90;90.40;;;;;;5043061;28;20981;-73
2021/08/23 03:43:04;;;;;;;22.93;21.23;;;16.80;90.80;;;;;;5044432;28;20465;-73
2021/08/23 03:45:31;;;;;;;21.40;19.80;;;16.80;90.80;;;;;;5042780;28;20459;-73
2021/08/23 03:47:58;;;;;;;20.37;19.23;;;16.80;90.80;;;;;;5046850;28;20505;-73
2021/08/23 03:50:26;;;;;;;20.57;19.47;;;16.80;91.20;;;;;;5038549;28;20451;-73
2021/08/23 03:52:53;;;;;;;22.27;21.17;;;16.70;91.50;;;;;;5036899;28;20843;-73
2021/08/23 03:55:20;;;;;;;20.97;19.87;;;16.70;91.50;;;;;;5041067;28;20463;-74
2021/08/23 03:57:46;;;;;;;22.20;20.77;;;16.70;91.60;;;;;;5043445;28;21022;-73
2021/08/23 04:00:13;;;;;;;21.33;19.90;;;16.70;91.70;;;;;;5042780;28;20550;-73
2021/08/23 04:02:40;;;;;;;23.07;21.77;;;16.70;92.00;;;;;;5044929;28;20491;-74
2021/08/23 04:05:08;;;;;;;21.60;20.40;;;16.70;91.70;;;;;;5039612;28;20447;-74
2021/08/23 04:07:36;;;;;;;21.53;19.90;;;16.70;91.70;;;;;;5045562;28;20542;-73
2021/08/23 04:10:04;;;;;;;21.67;20.33;;;16.70;91.80;;;;;;5040569;28;21240;-74
2021/08/23 04:12:31;;;;;;;21.40;20.20;;;16.80;91.80;;;;;;5046284;28;20465;-73
2021/08/23 04:15:00;;;;;;;21.63;20.33;;;16.80;91.40;;;;;;5033514;28;20487;-74
2021/08/23 04:17:27;;;;;;;22.20;20.90;;;16.70;91.50;;;;;;5042999;28;20479;-73
2021/08/23 04:19:54;;;;;;;23.40;22.03;;;16.70;91.80;;;;;;5042499;28;20469;-74
2021/08/23 04:22:20;;;;;;;21.67;20.10;;;16.60;91.80;;;;;;5046438;28;21250;-73
2021/08/23 04:24:49;;;;;;;21.03;19.50;;;16.70;91.70;;;;;;5045790;28;20473;-75
2021/08/23 04:27:16;;;;;;;24.60;22.90;;;16.70;91.60;;;;;;5046213;28;20851;-77
2021/08/23 04:29:42;;;;;;;20.77;19.63;;;16.80;91.20;;;;;;5040623;28;20552;-75
2021/08/23 04:32:10;;;;;;;21.57;20.27;;;16.70;90.90;;;;;;5043857;28;20460;-73
2021/08/23 04:34:36;;;;;;;22.73;21.40;;;16.70;90.90;;;;;;5041856;28;20678;-73
2021/08/23 04:37:04;;;;;;;21.10;20.00;;;16.80;90.80;;;;;;5042111;28;20470;-73
2021/08/23 04:39:32;;;;;;;22.90;21.30;;;16.80;91.00;;;;;;5042931;28;20505;-73
2021/08/23 04:42:01;;;;;;;21.30;20.20;;;16.70;91.20;;;;;;5045372;28;20463;-73
2021/08/23 04:44:28;;;;;;;26.73;24.80;;;16.80;91.20;;;;;;5041145;28;20981;-73
2021/08/23 04:46:55;;;;;;;23.93;22.53;;;16.80;91.30;;;;;;5041941;28;20972;-73
2021/08/23 04:49:22;;;;;;;21.77;20.33;;;16.80;91.20;;;;;;5044252;28;20470;-73
2021/08/23 04:51:49;;;;;;;21.20;20.07;;;16.80;91.40;;;;;;5041727;28;20451;-70
2021/08/23 04:54:19;;;;;;;21.10;19.90;;;16.90;91.30;;;;;;5043333;28;20481;-72
2021/08/23 04:56:47;;;;;;;22.07;20.67;;;16.90;91.10;;;;;;5041219;28;20473;-72
2021/08/23 04:59:16;;;;;;;24.47;22.80;;;17.00;91.00;;;;;;5039989;28;20569;-72
2021/08/23 05:01:43;;;;;;;22.90;21.63;;;17.00;90.60;;;;;;5038727;28;20471;-72
2021/08/23 05:04:10;;;;;;;21.03;19.93;;;17.00;91.10;;;;;;5047111;28;20485;-70
2021/08/23 05:06:37;;;;;;;23.73;22.27;;;16.90;91.70;;;;;;5036493;28;20470;-77
2021/08/23 05:09:04;;;;;;;24.70;23.10;;;17.00;91.80;;;;;;5043141;28;20471;-76
2021/08/23 05:11:31;;;;;;;21.17;19.87;;;17.00;91.60;;;;;;5040710;28;20455;-76
2021/08/23 05:13:58;;;;;;;22.67;21.23;;;17.00;91.70;;;;;;5045299;28;20491;-74
2021/08/23 05:16:26;;;;;;;21.63;20.33;;;17.10;91.90;;;;;;5040098;28;20562;-73
2021/08/23 05:18:53;;;;;;;24.27;22.87;;;17.10;91.80;;;;;;5042080;28;21028;-73
2021/08/23 05:21:20;;;;;;;25.53;23.97;;;17.10;91.30;;;;;;5044713;28;20469;-73
2021/08/23 05:23:47;;;;;;;23.30;22.00;;;17.10;91.30;;;;;;5034178;28;20999;-73
2021/08/23 05:26:14;;;;;;;22.43;21.20;;;17.00;91.50;;;;;;5043247;28;20536;-73
2021/08/23 05:28:41;;;;;;;21.53;20.23;;;17.00;91.70;;;;;;5037072;28;20592;-73
2021/08/23 05:31:08;;;;;;;22.20;21.00;;;17.00;91.90;;;;;;5045806;28;20475;-71
2021/08/23 05:33:36;;;;;;;21.48;19.92;;;17.10;91.90;;;;;;5038354;28;20481;-71
2021/08/23 05:36:03;;;;;;;24.20;22.53;;;17.30;91.50;;;;;;5043147;28;20211;-71
2021/08/23 05:38:30;;;;;;;21.70;20.30;;;17.30;91.50;;;;;;5041444;28;20487;-71
2021/08/23 05:40:57;;;;;;;23.80;22.40;;;17.30;91.30;;;;;;5038572;28;20542;-71
2021/08/23 05:43:25;;;;;;;22.10;20.90;;;17.30;91.60;;;;;;5041079;28;20464;-71
2021/08/23 05:45:52;;;;;;;25.00;23.70;;;17.30;91.50;;;;;;5039369;28;20486;-71
2021/08/23 05:48:19;;;;;;;23.80;22.20;;;17.40;91.60;;;;;;5045554;28;20475;-71
2021/08/23 05:50:47;;;;;;;26.20;24.70;;;17.50;91.20;;;;;;5040016;28;20467;-72
2021/08/23 05:53:14;;;;;;;25.40;24.00;;;17.50;91.10;;;;;;5041686;28;20465;-71
2021/08/23 05:55:41;;;;;;;24.40;23.03;;;17.60;90.50;;;;;;5037313;28;20487;-72
2021/08/23 05:58:08;;;;;;;24.00;22.40;;;17.60;90.10;;;;;;5039585;28;20842;-71
2021/08/23 06:00:35;;;;;;;26.77;25.10;;;17.60;90.30;;;;;;5040186;28;20558;-72
2021/08/23 06:03:02;;;;;;;25.37;23.73;;;17.70;90.10;;;;;;5043302;28;21160;-74
2021/08/23 06:05:29;;;;;;;23.87;22.40;;;17.70;89.80;;;;;;5040025;28;20455;-73
2021/08/23 06:07:57;;;;;;;22.90;21.50;;;17.80;89.80;;;;;;5042450;28;20474;-73
2021/08/23 06:10:24;;;;;;;23.97;22.50;;;17.90;89.50;;;;;;5037804;28;20475;-72
2021/08/23 06:12:51;;;;;;;22.27;20.90;;;18.10;89.10;;;;;;5037095;28;21060;-73
2021/08/23 06:15:18;;;;;;;23.53;22.23;;;18.30;88.40;;;;;;5037297;28;20471;-72
2021/08/23 06:17:44;;;;;;;21.80;20.70;;;18.50;87.70;;;;;;5039508;28;20478;-73
2021/08/23 06:20:12;;;;;;;24.80;22.90;;;18.50;87.30;;;;;;5044173;28;20459;-73
2021/08/23 06:22:39;;;;;;;26.27;24.67;;;18.50;87.00;;;;;;5042046;28;20465;-73
2021/08/23 06:25:09;;;;;;;24.10;22.57;;;18.60;86.50;;;;;;5032607;28;20462;-73
2021/08/23 06:27:36;;;;;;;23.80;22.50;;;18.70;86.80;;;;;;5043536;28;20565;-73
2021/08/23 06:30:04;;;;;;;22.83;21.33;;;18.70;86.70;;;;;;5042025;28;20492;-72
2021/08/23 06:32:31;;;;;;;26.67;25.00;;;19.10;85.30;;;;;;5043880;28;20227;-73
2021/08/23 06:34:58;;;;;;;24.80;23.30;;;19.10;85.00;;;;;;5042963;28;20471;-74
2021/08/23 06:37:25;;;;;;;27.30;25.40;;;19.20;84.80;;;;;;5041077;28;20482;-73
2021/08/23 06:39:52;;;;;;;27.90;26.00;;;19.20;84.80;;;;;;5042000;28;20459;-74
2021/08/23 06:42:20;;;;;;;23.70;22.30;;;19.30;84.90;;;;;;5040047;28;20972;-74
2021/08/23 06:44:47;;;;;;;24.83;23.43;;;19.30;84.70;;;;;;5046843;28;20487;-74
2021/08/23 06:47:16;;;;;;;25.93;24.37;;;19.40;84.80;;;;;;5050071;28;20816;-75
2021/08/23 06:49:43;;;;;;;26.60;24.43;;;19.50;84.50;;;;;;5045690;28;22315;-73
2021/08/23 06:52:10;;;;;;;25.07;23.57;;;19.50;84.10;;;;;;5048080;28;20459;-73
2021/08/23 06:54:37;;;;;;;26.90;25.40;;;19.60;83.90;;;;;;5047874;28;20474;-73
2021/08/23 06:57:04;;;;;;;26.80;25.10;;;19.60;83.60;;;;;;5043684;28;20461;-74
2021/08/23 06:59:33;;;;;;;26.80;25.30;;;19.70;83.40;;;;;;5046406;28;20549;-74
2021/08/23 07:01:59;;;;;;;28.00;26.30;;;19.80;83.50;;;;;;5047071;28;21029;-73
2021/08/23 07:04:26;;;;;;;26.23;24.63;;;19.80;83.20;;;;;;5049575;28;20469;-73
2021/08/23 07:06:53;;;;;;;27.93;26.17;;;19.80;83.20;;;;;;5041931;28;20454;-76
2021/08/23 07:09:20;;;;;;;25.83;24.33;;;20.00;82.50;;;;;;5048844;28;20485;-74
2021/08/23 07:11:50;;;;;;;27.03;24.87;;;20.00;82.30;;;;;;5046196;28;20459;-74
2021/08/23 07:14:17;;;;;;;27.77;26.17;;;20.00;82.60;;;;;;5047535;28;20995;-77
2021/08/23 07:16:45;;;;;;;27.10;25.60;;;20.00;82.10;;;;;;5043997;28;20540;-73
2021/08/23 07:19:12;;;;;;;28.60;26.87;;;20.00;81.90;;;;;;5044945;28;20933;-72
2021/08/23 07:21:39;;;;;;;28.30;26.60;;;20.00;82.10;;;;;;5045028;28;20454;-72
2021/08/23 07:24:09;;;;;;;27.93;26.23;;;20.10;81.10;;;;;;5041782;28;20563;-73
2021/08/23 07:26:39;;;;;;;27.10;25.30;;;20.00;80.00;;;;;;5043322;28;20467;-74
2021/08/23 07:29:07;;;;;;;26.30;24.87;;;20.00;80.40;;;;;;5042148;28;20489;-74
2021/08/23 07:31:34;;;;;;;28.63;26.97;;;20.00;81.50;;;;;;5044459;28;20489;-73
2021/08/23 07:34:02;;;;;;;26.97;25.30;;;20.10;80.50;;;;;;5049467;28;20463;-73
2021/08/23 07:36:32;;;;;;;28.20;26.60;;;20.30;80.30;;;;;;5041472;28;20492;-73
2021/08/23 07:38:59;;;;;;;26.90;25.40;;;20.50;80.30;;;;;;5041848;28;20498;-74
2021/08/23 07:41:26;;;;;;;27.30;25.80;;;20.60;79.10;;;;;;5047609;28;20892;-74
2021/08/23 07:43:55;;;;;;;29.97;28.20;;;20.70;79.20;;;;;;5038919;28;20848;-73
2021/08/23 07:46:22;;;;;;;27.23;25.43;;;20.80;78.80;;;;;;5043283;28;20447;-74
2021/08/23 07:48:49;;;;;;;31.33;29.60;;;21.00;78.10;;;;;;5046991;28;20676;-73
2021/08/23 07:51:18;;;;;;;29.13;26.80;;;21.00;76.50;;;;;;5044802;28;20456;-73
2021/08/23 07:53:45;;;;;;;27.67;26.07;;;20.90;77.20;;;;;;5047363;28;20518;-73
2021/08/23 07:56:12;;;;;;;28.47;26.87;;;21.00;77.80;;;;;;5045878;28;20467;-73
2021/08/23 07:58:39;;;;;;;30.30;28.20;;;21.10;77.20;;;;;;5047349;28;20483;-73
2021/08/23 08:01:05;;;;;;;27.30;25.50;;;21.10;77.30;;;;;;5046239;28;20455;-72
2021/08/23 08:03:32;;;;;;;30.13;28.13;;;21.20;77.30;;;;;;5046387;28;20452;-73
2021/08/23 08:05:59;;;;;;;30.80;28.57;;;21.20;77.30;;;;;;5045551;28;20463;-73
2021/08/23 08:08:28;;;;;;;28.67;27.07;;;21.40;76.00;;;;;;5047844;28;20471;-73
2021/08/23 08:10:57;;;;;;;29.03;27.27;;;21.40;75.40;;;;;;5045082;28;20948;-72
2021/08/23 08:13:24;;;;;;;30.03;28.33;;;21.30;74.00;;;;;;5047251;28;20458;-73
2021/08/23 08:15:51;;;;;;;29.00;27.37;;;21.40;73.60;;;;;;5043600;28;20476;-72
2021/08/23 08:18:19;;;;;;;31.27;29.03;;;21.30;73.60;;;;;;5042316;28;21163;-72
2021/08/23 08:20:46;;;;;;;28.93;27.07;;;21.20;74.00;;;;;;5047131;28;20554;-72
2021/08/23 08:23:13;;;;;;;30.73;28.57;;;21.20;74.80;;;;;;5047231;28;20488;-72
2021/08/23 08:25:41;;;;;;;28.57;26.80;;;21.30;73.80;;;;;;5040471;28;20470;-73
2021/08/23 08:28:08;;;;;;;28.40;26.70;;;21.20;73.30;;;;;;5046316;28;20555;-72
2021/08/23 08:30:35;;;;;;;31.00;29.30;;;21.10;73.20;;;;;;5043383;28;20461;-72
2021/08/23 08:33:02;;;;;;;28.30;26.73;;;20.90;73.80;;;;;;5047136;28;20459;-73
2021/08/23 08:35:29;;;;;;;34.20;32.30;;;20.60;73.80;;;;;;5045417;28;20476;-72
2021/08/23 08:37:56;;;;;;;28.90;27.03;;;20.50;74.80;;;;;;5044221;28;20573;-72
2021/08/23 08:40:26;;;;;;;29.10;27.30;;;20.50;74.50;;;;;;5045173;28;20538;-72
2021/08/23 08:42:55;;;;;;;29.50;27.80;;;20.30;74.80;;;;;;5047022;28;20471;-73
2021/08/23 08:45:26;;;;;;;29.97;28.17;;;20.20;75.60;;;;;;5039634;28;21041;-72
2021/08/23 08:47:54;;;;;;;28.27;26.37;;;20.20;76.10;;;;;;5046189;28;20566;-72
2021/08/23 08:50:22;;;;;;;29.07;27.23;;;20.20;76.20;;;;;;5046835;28;20549;-72
2021/08/23 08:52:52;;;;;;;29.27;27.40;;;20.30;76.20;;;;;;5043569;28;20465;-73
2021/08/23 08:55:19;;;;;;;29.23;27.47;;;20.40;75.80;;;;;;5045052;28;20880;-73
2021/08/23 08:57:46;;;;;;;28.87;27.17;;;20.50;75.40;;;;;;5045804;28;20487;-73
2021/08/23 09:00:15;;;;;;;29.17;27.17;;;20.50;75.80;;;;;;5044832;28;21020;-73
2021/08/23 09:02:54;;;;;;;29.47;27.87;;;20.60;75.50;;;;;;5041843;28;20545;-76
2021/08/23 09:05:21;;;;;;;27.97;26.43;;;20.70;75.40;;;;;;5042661;28;20464;-73
2021/08/23 09:07:49;;;;;;;28.17;26.47;;;20.70;75.00;;;;;;5040374;28;20471;-73
2021/08/23 09:10:21;;;;;;;27.50;25.80;;;20.90;74.70;;;;;;5044572;28;20458;-72
2021/08/23 09:13:00;;;;;;;28.83;26.77;;;21.00;74.90;;;;;;5043499;28;20459;-73
2021/08/23 09:15:28;;;;;;;29.83;28.03;;;21.10;74.40;;;;;;5045622;28;20479;-72
2021/08/23 09:18:02;;;;;;;28.83;27.03;;;21.20;74.20;;;;;;5046177;28;20561;-72
2021/08/23 09:20:29;;;;;;;28.10;26.60;;;21.50;73.40;;;;;;5045033;28;20888;-72
2021/08/23 09:23:10;;;;;;;29.27;27.50;;;21.60;73.00;;;;;;5045642;28;20513;-72
2021/08/23 09:25:38;;;;;;;28.87;27.27;;;21.80;71.80;;;;;;5040243;28;20454;-72
2021/08/23 09:28:07;;;;;;;27.67;26.00;;;21.90;71.50;;;;;;5045982;28;20489;-72
2021/08/23 09:30:35;;;;;;;30.20;28.33;;;22.00;71.80;;;;;;5044379;28;20455;-72
2021/08/23 09:33:05;;;;;;;32.40;30.57;;;22.10;71.20;;;;;;5047150;28;20689;-72
2021/08/23 09:35:33;;;;;;;29.57;27.87;;;22.20;71.30;;;;;;5040167;28;20479;-73
2021/08/23 09:38:01;;;;;;;28.50;26.80;;;22.20;71.80;;;;;;5045267;28;20490;-73
2021/08/23 09:40:30;;;;;;;29.13;27.40;;;22.30;71.50;;;;;;5044322;28;21100;-73
2021/08/23 09:42:59;;;;;;;27.97;26.37;;;22.40;70.70;;;;;;5046789;28;20455;-73
2021/08/23 09:45:27;;;;;;;29.63;27.93;;;22.40;70.20;;;;;;5043912;28;20465;-73
2021/08/23 09:48:03;;;;;;;28.60;26.90;;;22.20;70.80;;;;;;5039461;28;20476;-73
2021/08/23 09:50:40;;;;;;;27.27;25.77;;;22.10;71.20;;;;;;5044842;28;20465;-73
2021/08/23 09:53:11;;;;;;;30.20;28.33;;;22.10;71.20;;;;;;5045285;28;20473;-73
2021/08/23 09:55:40;;;;;;;27.20;25.70;;;22.10;71.70;;;;;;5044088;28;20483;-73
2021/08/23 09:58:09;;;;;;;27.87;26.10;;;22.30;70.60;;;;;;5044598;28;20482;-73
2021/08/23 10:00:36;;;;;;;28.60;26.90;;;22.50;70.70;;;;;;5046699;28;20470;-73
2021/08/23 10:03:13;;;;;;;27.80;26.23;;;22.60;70.70;;;;;;5043596;28;20447;-73
2021/08/23 10:05:43;;;;;;;28.00;26.40;;;22.80;70.60;;;;;;5040622;28;20455;-74
2021/08/23 10:08:12;;;;;;;29.27;27.57;;;23.00;69.70;;;;;;5044221;28;20486;-73
2021/08/23 10:10:41;;;;;;;27.30;25.70;;;23.10;69.50;;;;;;5038338;28;20824;-74
2021/08/23 10:13:08;;;;;;;29.17;27.47;;;23.00;69.80;;;;;;5040470;28;20969;-73
2021/08/23 10:15:37;;;;;;;29.77;27.97;;;22.70;69.60;;;;;;5043036;28;20467;-73
2021/08/23 10:18:05;;;;;;;29.90;28.20;;;22.50;70.10;;;;;;5042890;28;20848;-73
2021/08/23 10:20:33;;;;;;;31.40;29.23;;;22.10;73.10;;;;;;5047528;28;20459;-73
2021/08/23 10:23:02;;;;;;;31.57;29.43;;;21.80;74.60;;;;;;5049122;28;20455;-74
2021/08/23 10:25:29;;;;;;;30.30;28.27;;;21.70;77.40;;;;;;5049395;28;21260;-73
2021/08/23 10:28:06;;;;;;;28.27;26.60;;;21.80;77.50;;;;;;5044921;28;20481;-72
2021/08/23 10:30:33;;;;;;;29.60;27.70;;;22.00;76.40;;;;;;5049041;28;20936;-74
2021/08/23 10:33:12;;;;;;;29.67;27.97;;;22.10;74.10;;;;;;5051317;28;20459;-72
2021/08/23 10:35:51;;;;;;;30.80;28.80;;;22.00;74.20;;;;;;5045095;28;20484;-73
2021/08/23 10:38:21;;;;;;;28.80;27.10;;;22.00;75.30;;;;;;5050981;28;20482;-73
2021/08/23 10:40:49;;;;;;;28.77;26.70;;;22.20;74.30;;;;;;5049421;28;20463;-73
2021/08/23 10:43:18;;;;;;;27.87;26.27;;;22.20;73.10;;;;;;5042538;28;20451;-74
2021/08/23 10:45:47;;;;;;;30.77;28.90;;;22.20;73.20;;;;;;5045198;28;20475;-74
2021/08/23 10:48:16;;;;;;;29.93;28.13;;;22.20;73.70;;;;;;5049759;28;20478;-73
2021/08/23 10:51:02;;;;;;;30.57;28.77;;;22.30;74.00;;;;;;5040523;28;20457;-75
2021/08/23 10:53:36;;;;;;;26.70;25.10;;;22.40;73.80;;;;;;5042279;28;20551;-72
2021/08/23 10:56:21;;;;;;;29.10;27.33;;;22.60;71.90;;;;;;5047799;28;20494;-73
2021/08/23 10:58:50;;;;;;;29.80;28.10;;;22.80;71.80;;;;;;5039098;28;20875;-73
2021/08/23 11:01:20;;;;;;;29.40;27.70;;;22.80;70.80;;;;;;5047650;28;20545;-73
2021/08/23 11:04:01;;;;;;;29.20;27.50;;;22.70;71.50;;;;;;5045011;28;20865;-73
2021/08/23 11:06:28;;;;;;;28.20;26.60;;;22.80;71.50;;;;;;5046839;28;20945;-71
2021/08/23 11:09:06;;;;;;;28.50;27.00;;;22.90;71.00;;;;;;5045705;28;20589;-73
2021/08/23 11:11:38;;;;;;;28.83;27.03;;;22.90;69.80;;;;;;5046266;28;20466;-73
2021/08/23 11:14:17;;;;;;;29.73;28.03;;;22.10;72.10;;;;;;5049029;28;20461;-72
2021/08/23 11:16:50;;;;;;;30.73;28.93;;;21.60;73.40;;;;;;5048009;28;20505;-73
2021/08/23 11:19:20;;;;;;;28.30;26.70;;;21.50;74.00;;;;;;5048343;28;21183;-73
2021/08/23 11:21:54;;;;;;;28.87;27.37;;;21.40;74.70;;;;;;5048168;28;20467;-72
2021/08/23 11:24:21;;;;;;;28.80;27.10;;;21.40;74.30;;;;;;5043578;28;20455;-73
2021/08/23 11:26:55;;;;;;;27.50;25.80;;;21.50;73.70;;;;;;5047847;28;20852;-72
2021/08/23 11:29:22;;;;;;;26.80;25.30;;;21.50;73.50;;;;;;5047351;28;20557;-72
2021/08/23 11:31:56;;;;;;;27.57;25.97;;;21.70;73.40;;;;;;5044056;28;20469;-73
2021/08/23 11:34:26;;;;;;;26.97;25.57;;;21.80;72.40;;;;;;5049233;28;20453;-73
2021/08/23 11:37:01;;;;;;;26.90;25.50;;;21.80;72.70;;;;;;5045722;28;20471;-73
2021/08/23 11:39:28;;;;;;;30.53;28.83;;;21.50;72.00;;;;;;5038147;28;20469;-73
2021/08/23 11:42:00;;;;;;;27.27;25.77;;;21.40;72.80;;;;;;5042461;28;20455;-73
2021/08/23 11:44:27;;;;;;;28.50;27.00;;;21.80;72.70;;;;;;5040124;28;20547;-72
2021/08/23 11:46:59;;;;;;;28.87;26.97;;;22.00;71.80;;;;;;5045182;28;20542;-72
2021/08/23 11:49:32;;;;;;;27.40;25.90;;;22.30;70.90;;;;;;5039906;28;20455;-72
2021/08/23 11:51:59;;;;;;;30.70;29.17;;;22.30;69.60;;;;;;5044426;28;20469;-72
2021/08/23 11:54:26;;;;;;;28.20;26.70;;;22.40;70.80;;;;;;5044587;28;20957;-72
2021/08/23 11:56:53;;;;;;;28.43;26.83;;;22.60;70.00;;;;;;5046071;28;20485;-71
2021/08/23 11:59:20;;;;;;;28.73;27.13;;;22.40;69.90;;;;;;5044967;28;20483;-71
2021/08/23 12:01:48;;;;;;;28.53;26.57;;;22.10;70.70;;;;;;5043254;28;20474;-70
2021/08/23 12:04:23;;;;;;;27.60;26.00;;;22.10;70.80;;;;;;5047815;28;20459;-72
2021/08/23 12:06:57;;;;;;;28.53;26.90;;;22.30;71.60;;;;;;5044872;28;20447;-71
2021/08/23 12:09:24;;;;;;;28.20;26.40;;;22.20;71.30;;;;;;5047876;28;20459;-70
2021/08/23 12:11:51;;;;;;;28.43;26.53;;;22.00;71.30;;;;;;5046718;28;20455;-71
2021/08/23 12:14:20;;;;;;;28.87;26.97;;;21.70;71.40;;;;;;5046485;28;20455;-71
2021/08/23 12:16:48;;;;;;;28.90;27.30;;;21.70;72.50;;;;;;5039720;28;20890;-72
2021/08/23 12:19:16;;;;;;;30.10;28.40;;;21.70;72.80;;;;;;5042841;28;20545;-72
2021/08/23 12:21:45;;;;;;;31.60;29.73;;;21.90;72.80;;;;;;5042038;28;20522;-72
2021/08/23 12:24:22;;;;;;;29.23;27.20;;;22.10;71.00;;;;;;5044117;28;20459;-72
2021/08/23 12:26:54;;;;;;;28.67;27.07;;;22.30;70.80;;;;;;5044411;28;20459;-72
2021/08/23 12:29:28;;;;;;;27.67;26.07;;;22.40;70.40;;;;;;5044503;28;20976;-71
2021/08/23 12:31:57;;;;;;;30.57;28.87;;;22.60;69.40;;;;;;5042434;28;20885;-74
2021/08/23 12:34:25;;;;;;;30.10;28.40;;;22.60;68.50;;;;;;5045497;28;20953;-73